createdAt,value
2022-11-15T00:01:01.683Z,11.27
2022-11-15T00:03:29.886Z,11.08
2022-11-15T00:06:03.552Z,10.89
2022-11-15T00:08:32.959Z,11.28
2022-11-15T00:11:02.118Z,11.23
2022-11-15T00:13:30.696Z,10.96
2022-11-15T00:15:59.225Z,10.93
2022-11-15T00:18:26.899Z,11.25
2022-11-15T00:20:54.584Z,10.72
2022-11-15T00:23:22.289Z,10.84
2022-11-15T00:25:57.392Z,11.16
2022-11-15T00:28:25.046Z,10.98
2022-11-15T00:30:52.842Z,11.04
2022-11-15T00:33:20.548Z,11.22
2022-11-15T00:35:48.256Z,11.05
2022-11-15T00:38:15.944Z,11.27
2022-11-15T00:40:43.648Z,11.17
2022-11-15T00:43:12.667Z,11.13
2022-11-15T00:45:40.362Z,11.33
2022-11-15T00:48:08.007Z,10.88
2022-11-15T00:50:35.636Z,10.77
2022-11-15T00:53:03.286Z,11.12
2022-11-15T00:55:30.942Z,10.97
2022-11-15T00:57:58.612Z,10.99
2022-11-15T01:00:27.662Z,10.83
2022-11-15T01:02:55.315Z,11.01
2022-11-15T01:05:23.188Z,10.83
2022-11-15T01:07:53.781Z,11.22
2022-11-15T01:10:21.435Z,11.28
2022-11-15T01:12:49.149Z,11.01
2022-11-15T01:15:16.925Z,11.05
2022-11-15T01:17:45.904Z,11.33
2022-11-15T01:20:14.281Z,11.16
2022-11-15T01:22:41.899Z,11.39
2022-11-15T01:25:09.813Z,11.22
2022-11-15T01:27:37.478Z,11.34
2022-11-15T01:30:06.297Z,11.09
2022-11-15T01:32:33.989Z,11.41
2022-11-15T01:35:02.981Z,11.11
2022-11-15T01:37:30.608Z,10.97
2022-11-15T01:39:58.265Z,11.36
2022-11-15T01:42:25.900Z,10.94
2022-11-15T01:44:55.762Z,11.22
2022-11-15T01:47:25.956Z,11.03
2022-11-15T01:49:59.110Z,11.36
2022-11-15T01:52:30.254Z,11.37
2022-11-15T01:55:02.596Z,11.49
2022-11-15T01:57:30.297Z,11.59
2022-11-15T01:59:59.412Z,11.50
2022-11-15T02:02:27.059Z,11.29
2022-11-15T02:04:54.860Z,11.24
2022-11-15T02:07:23.415Z,11.37
2022-11-15T02:09:52.982Z,11.34
2022-11-15T02:12:22.268Z,11.42
2022-11-15T02:14:51.778Z,11.33
2022-11-15T02:17:31.723Z,11.35
2022-11-15T02:20:16.363Z,11.44
2022-11-15T02:22:53.956Z,11.57
2022-11-15T02:25:40.288Z,11.35
2022-11-15T02:28:38.880Z,11.41
2022-11-15T02:31:13.363Z,11.32
2022-11-15T02:33:44.819Z,11.59
2022-11-15T02:36:15.674Z,11.78
2022-11-15T02:38:48.871Z,11.70
2022-11-15T02:41:19.357Z,11.81
2022-11-15T02:44:07.089Z,11.73
2022-11-15T02:46:56.761Z,12.15
2022-11-15T02:49:25.966Z,11.90
2022-11-15T02:51:54.596Z,11.71
2022-11-15T02:54:24.536Z,12.01
2022-11-15T02:56:54.227Z,11.62
2022-11-15T02:59:50.610Z,11.96
2022-11-15T03:02:33.534Z,12.17
2022-11-15T03:05:06.695Z,12.18
2022-11-15T03:07:37.808Z,12.55
2022-11-15T03:10:09.227Z,12.48
2022-11-15T03:12:40.121Z,12.30
2022-11-15T03:15:10.265Z,12.30
2022-11-15T03:17:42.427Z,12.18
2022-11-15T03:20:11.485Z,12.46
2022-11-15T03:22:41.507Z,12.83
2022-11-15T03:25:11.268Z,12.52
2022-11-15T03:27:41.335Z,12.53
2022-11-15T03:30:10.933Z,12.52
2022-11-15T03:32:42.809Z,12.63
2022-11-15T03:35:12.702Z,12.40
2022-11-15T03:37:43.660Z,12.45
2022-11-15T03:40:12.104Z,12.70
2022-11-15T03:42:43.883Z,13.11
2022-11-15T03:45:16.222Z,12.45
2022-11-15T03:47:49.579Z,12.99
2022-11-15T03:50:19.873Z,13.18
2022-11-15T03:52:48.989Z,12.80
2022-11-15T03:55:20.118Z,12.35
2022-11-15T03:57:49.399Z,13.10
2022-11-15T04:00:17.863Z,13.08
2022-11-15T04:02:46.860Z,12.83
2022-11-15T04:05:14.519Z,12.85
2022-11-15T04:07:42.175Z,13.17
2022-11-15T04:10:11.109Z,13.24
2022-11-15T04:12:41.627Z,13.17
2022-11-15T04:15:11.605Z,13.24
2022-11-15T04:17:41.086Z,12.90
2022-11-15T04:20:30.142Z,13.20
2022-11-15T04:23:16.088Z,13.31
2022-11-15T04:25:44.340Z,13.37
2022-11-15T04:28:12.344Z,13.43
2022-11-15T04:30:41.595Z,13.28
2022-11-15T04:33:09.253Z,13.32
2022-11-15T04:35:38.296Z,13.54
2022-11-15T04:38:07.458Z,13.76
2022-11-15T04:40:35.217Z,13.60
2022-11-15T04:43:04.174Z,13.39
2022-11-15T04:45:32.101Z,13.45
2022-11-15T04:47:59.707Z,13.57
2022-11-15T04:50:27.378Z,13.58
2022-11-15T04:52:56.470Z,13.31
2022-11-15T04:55:24.255Z,13.52
2022-11-15T04:58:00.572Z,13.34
2022-11-15T05:00:29.421Z,13.41
2022-11-15T05:03:14.989Z,13.61
2022-11-15T05:05:42.841Z,13.26
2022-11-15T05:08:11.855Z,13.52
2022-11-15T05:10:39.539Z,13.93
2022-11-15T05:13:07.161Z,13.76
2022-11-15T05:15:34.813Z,13.78
2022-11-15T05:18:02.508Z,13.56
2022-11-15T05:20:30.216Z,13.88
2022-11-15T05:22:57.874Z,14.03
2022-11-15T05:25:27.534Z,13.82
2022-11-15T05:27:55.211Z,13.85
2022-11-15T05:30:22.976Z,13.91
2022-11-15T05:32:50.853Z,14.07
2022-11-15T05:35:21.805Z,13.88
2022-11-15T05:37:50.102Z,13.77
2022-11-15T05:40:18.140Z,14.09
2022-11-15T05:42:48.632Z,14.00
2022-11-15T05:45:16.500Z,14.10
2022-11-15T05:47:44.233Z,13.96
2022-11-15T05:50:13.622Z,13.67
2022-11-15T05:52:41.340Z,14.09
2022-11-15T05:55:10.137Z,13.60
2022-11-15T05:57:38.103Z,14.23
2022-11-15T06:00:09.119Z,14.36
2022-11-15T06:02:36.838Z,14.20
2022-11-15T06:05:05.088Z,14.34
2022-11-15T06:07:32.833Z,14.47
2022-11-15T06:10:00.485Z,14.15
2022-11-15T06:12:28.216Z,13.89
2022-11-15T06:14:55.849Z,14.29
2022-11-15T06:17:24.909Z,14.11
2022-11-15T06:19:52.584Z,14.27
2022-11-15T06:22:20.288Z,14.05
2022-11-15T06:24:47.916Z,14.25
2022-11-15T06:27:15.728Z,14.23
2022-11-15T06:29:43.489Z,14.38
2022-11-15T06:32:11.422Z,14.35
2022-11-15T06:34:40.435Z,14.16
2022-11-15T06:37:08.056Z,14.20
2022-11-15T06:39:35.745Z,14.22
2022-11-15T06:42:03.392Z,14.34
2022-11-15T06:44:31.036Z,14.46
2022-11-15T06:46:58.720Z,14.54
2022-11-15T06:49:26.348Z,14.40
2022-11-15T06:51:55.336Z,14.35
2022-11-15T06:54:23.310Z,14.31
2022-11-15T06:56:51.305Z,14.17
2022-11-15T06:59:18.974Z,14.56
2022-11-15T07:01:46.658Z,14.32
2022-11-15T07:04:14.431Z,14.40
2022-11-15T07:06:42.080Z,14.37
2022-11-15T07:09:11.075Z,14.04
2022-11-15T07:11:38.738Z,14.35
2022-11-15T07:14:06.380Z,14.09
2022-11-15T07:16:34.047Z,14.38
2022-11-15T07:19:01.877Z,14.55
2022-11-15T07:21:29.589Z,14.38
2022-11-15T07:23:57.284Z,14.43
2022-11-15T07:26:26.360Z,14.25
2022-11-15T07:28:54.096Z,14.12
2022-11-15T07:31:21.885Z,14.55
2022-11-15T07:33:49.500Z,14.43
2022-11-15T07:36:17.132Z,14.36
2022-11-15T07:38:44.793Z,14.50
2022-11-15T07:41:12.423Z,14.73
2022-11-15T07:43:41.576Z,14.22
2022-11-15T07:46:10.846Z,13.55
2022-11-15T07:48:44.527Z,13.58
2022-11-15T07:51:14.863Z,13.56
2022-11-15T07:53:42.804Z,13.67
2022-11-15T07:56:11.076Z,13.56
2022-11-15T07:58:38.822Z,13.38
2022-11-15T08:01:08.998Z,13.50
2022-11-15T08:03:37.148Z,13.57
2022-11-15T08:06:05.141Z,13.73
2022-11-15T08:08:32.810Z,13.65
2022-11-15T08:11:00.478Z,13.66
2022-11-15T08:13:28.262Z,13.55
2022-11-15T08:16:00.029Z,13.58
2022-11-15T08:18:29.028Z,13.62
2022-11-15T08:21:00.849Z,13.78
2022-11-15T08:23:29.033Z,13.71
2022-11-15T08:26:01.384Z,13.67
2022-11-15T08:28:29.091Z,13.84
2022-11-15T08:30:56.718Z,13.87
2022-11-15T08:33:24.379Z,13.93
2022-11-15T08:35:53.392Z,13.97
2022-11-15T08:38:21.036Z,13.87
2022-11-15T08:40:48.705Z,13.64
2022-11-15T08:43:16.355Z,13.76
2022-11-15T08:45:44.021Z,13.77
2022-11-15T08:48:11.684Z,13.67
2022-11-15T08:50:39.444Z,14.01
2022-11-15T08:53:09.475Z,13.45
2022-11-15T08:55:38.672Z,13.58
2022-11-15T08:58:06.518Z,13.76
2022-11-15T09:00:35.179Z,13.84
2022-11-15T09:03:05.879Z,14.07
2022-11-15T09:05:33.560Z,14.04
2022-11-15T09:08:06.589Z,13.91
2022-11-15T09:10:42.801Z,13.44
2022-11-15T09:13:10.449Z,13.30
2022-11-15T09:15:38.107Z,13.28
2022-11-15T09:18:05.885Z,12.86
2022-11-15T09:20:34.144Z,13.56
2022-11-15T09:23:02.947Z,13.52
2022-11-15T09:25:30.912Z,13.68
2022-11-15T09:28:00.146Z,13.77
2022-11-15T09:30:27.848Z,13.86
2022-11-15T09:32:55.579Z,13.88
2022-11-15T09:35:23.223Z,13.94
2022-11-15T09:37:55.974Z,13.59
2022-11-15T09:40:24.533Z,13.77
2022-11-15T09:43:05.079Z,14.06
2022-11-15T09:45:36.531Z,13.94
2022-11-15T09:48:23.543Z,13.99
2022-11-15T09:50:54.379Z,14.40
2022-11-15T09:54:01.214Z,13.98
2022-11-15T09:56:18.865Z,13.90
2022-11-15T09:58:54.929Z,13.87
2022-11-15T10:01:30.835Z,13.92
2022-11-15T10:04:00.135Z,13.77
2022-11-15T10:06:28.718Z,13.77
2022-11-15T10:09:04.520Z,14.03
2022-11-15T10:11:38.995Z,14.22
2022-11-15T10:14:13.278Z,14.34
2022-11-15T10:17:10.281Z,14.11
2022-11-15T10:19:42.945Z,13.84
2022-11-15T10:22:20.714Z,14.11
2022-11-15T10:24:48.970Z,13.61
2022-11-15T10:27:18.355Z,13.91
2022-11-15T10:29:49.030Z,14.11
2022-11-15T10:32:20.354Z,14.23
2022-11-15T10:34:48.812Z,14.22
2022-11-15T10:37:16.698Z,14.35
2022-11-15T10:39:44.376Z,14.50
2022-11-15T10:42:19.605Z,14.49
2022-11-15T10:44:48.636Z,14.33
2022-11-15T10:47:28.158Z,14.25
2022-11-15T10:50:05.445Z,14.59
2022-11-15T10:52:35.497Z,14.39
2022-11-15T10:55:07.719Z,14.43
2022-11-15T10:57:38.504Z,14.78
2022-11-15T11:00:09.903Z,14.38
2022-11-15T11:02:39.171Z,14.72
2022-11-15T11:05:28.088Z,14.61
2022-11-15T11:07:59.525Z,14.37
2022-11-15T11:13:16.301Z,14.56
2022-11-15T11:15:47.413Z,14.68
2022-11-15T11:18:20.523Z,14.86
2022-11-15T11:20:52.087Z,14.74
2022-11-15T11:23:30.669Z,14.37
2022-11-15T11:26:31.804Z,14.66
2022-11-15T11:29:04.915Z,15.16
2022-11-15T11:31:38.601Z,14.82
2022-11-15T11:34:15.543Z,14.87
2022-11-15T11:36:48.062Z,15.33
2022-11-15T11:39:23.491Z,15.17
2022-11-15T11:41:59.285Z,15.08
2022-11-15T11:44:34.256Z,15.11
2022-11-15T11:47:04.069Z,14.65
2022-11-15T11:49:36.680Z,14.94
2022-11-15T11:52:11.137Z,15.34
2022-11-15T11:54:45.289Z,15.56
2022-11-15T11:57:17.426Z,15.74
2022-11-15T11:59:48.989Z,15.06
2022-11-15T12:02:22.286Z,15.50
2022-11-15T12:04:52.620Z,15.26
2022-11-15T12:07:25.448Z,14.97
2022-11-15T12:09:57.149Z,15.15
2022-11-15T12:12:32.320Z,15.15
2022-11-15T12:15:04.498Z,15.21
2022-11-15T12:17:34.156Z,15.64
2022-11-15T12:20:04.470Z,15.70
2022-11-15T12:22:39.052Z,15.31
2022-11-15T12:25:09.942Z,15.72
2022-11-15T12:27:40.683Z,15.39
2022-11-15T12:30:13.178Z,15.31
2022-11-15T12:32:52.238Z,15.36
2022-11-15T12:35:27.304Z,15.40
2022-11-15T12:37:58.374Z,15.56
2022-11-15T12:40:34.879Z,15.35
2022-11-15T12:43:35.056Z,15.36
2022-11-15T12:46:07.399Z,15.70
2022-11-15T12:49:01.001Z,15.19
2022-11-15T12:52:05.950Z,15.57
2022-11-15T12:54:55.573Z,15.33
2022-11-15T12:57:44.123Z,15.13
2022-11-15T13:00:44.693Z,15.09
2022-11-15T13:03:29.758Z,15.12
2022-11-15T13:06:05.213Z,15.27
2022-11-15T13:08:41.031Z,15.40
2022-11-15T13:11:41.964Z,15.05
2022-11-15T13:14:57.237Z,14.90
2022-11-15T13:17:30.875Z,14.67
2022-11-15T13:20:11.424Z,14.83
2022-11-15T13:22:55.432Z,14.80
2022-11-15T13:25:48.832Z,15.04
2022-11-15T13:28:23.885Z,15.02
2022-11-15T13:30:53.472Z,14.85
2022-11-15T13:33:23.032Z,15.05
2022-11-15T13:35:52.945Z,14.79
2022-11-15T13:38:28.432Z,14.99
2022-11-15T13:40:56.596Z,15.05
2022-11-15T13:43:31.408Z,15.00
2022-11-15T13:46:11.699Z,14.59
2022-11-15T13:48:39.875Z,14.82
2022-11-15T13:51:10.791Z,15.18
2022-11-15T13:53:42.700Z,14.66
2022-11-15T13:56:10.568Z,14.74
2022-11-15T13:58:39.793Z,14.72
2022-11-15T14:01:07.866Z,14.76
2022-11-15T14:03:38.565Z,14.66
2022-11-15T14:06:12.885Z,14.47
2022-11-15T14:08:42.630Z,14.94
2022-11-15T14:11:15.267Z,14.59
2022-11-15T14:13:43.174Z,14.42
2022-11-15T14:16:18.425Z,14.44
2022-11-15T14:18:48.530Z,14.42
2022-11-15T14:21:16.608Z,14.41
2022-11-15T14:23:45.985Z,14.47
2022-11-15T14:26:29.640Z,14.39
2022-11-15T14:28:57.311Z,14.08
2022-11-15T14:31:24.953Z,14.23
2022-11-15T14:33:52.612Z,14.24
2022-11-15T14:36:21.884Z,14.15
2022-11-15T14:38:51.216Z,14.10
2022-11-15T14:41:23.862Z,13.97
2022-11-15T14:43:52.226Z,13.78
2022-11-15T14:46:19.970Z,13.88
2022-11-15T14:48:47.712Z,13.88
2022-11-15T14:51:17.765Z,13.81
2022-11-15T14:53:46.479Z,13.65
2022-11-15T14:56:17.103Z,13.77
2022-11-15T14:58:44.832Z,13.67
2022-11-15T15:01:15.423Z,13.38
2022-11-15T15:03:44.978Z,13.43
2022-11-15T15:06:18.039Z,13.51
2022-11-15T15:08:46.430Z,13.41
2022-11-15T15:11:17.243Z,13.50
2022-11-15T15:13:44.921Z,13.51
2022-11-15T15:16:12.599Z,13.44
2022-11-15T15:18:40.223Z,13.54
2022-11-15T15:21:20.943Z,13.54
2022-11-15T15:23:48.663Z,13.35
2022-11-15T15:26:17.729Z,13.31
2022-11-15T15:28:45.501Z,13.12
2022-11-15T15:31:13.205Z,13.09
2022-11-15T15:33:40.839Z,12.97
2022-11-15T15:36:11.631Z,13.04
2022-11-15T15:38:40.667Z,12.88
2022-11-15T15:41:11.615Z,12.83
2022-11-15T15:43:41.309Z,12.88
2022-11-15T15:46:10.931Z,13.00
2022-11-15T15:48:40.329Z,12.95
2022-11-15T15:51:15.514Z,12.96
2022-11-15T15:53:47.419Z,13.04
2022-11-15T15:56:15.312Z,12.97
2022-11-15T15:58:44.379Z,12.82
2022-11-15T16:01:12.063Z,13.13
2022-11-15T16:03:39.764Z,13.09
2022-11-15T16:06:39.012Z,13.24
2022-11-15T16:09:16.178Z,13.00
2022-11-15T16:11:46.364Z,13.11
2022-11-15T16:14:15.423Z,13.04
2022-11-15T16:16:43.089Z,12.78
2022-11-15T16:19:11.345Z,12.99
2022-11-15T16:21:39.000Z,13.12
2022-11-15T16:24:06.846Z,12.79
2022-11-15T16:26:35.093Z,12.99
2022-11-15T16:29:02.752Z,13.13
2022-11-15T16:31:31.795Z,13.26
2022-11-15T16:33:59.430Z,13.15
2022-11-15T16:36:31.253Z,13.25
2022-11-15T16:38:59.200Z,13.19
2022-11-15T16:41:27.121Z,13.09
2022-11-15T16:43:54.793Z,13.32
2022-11-15T16:46:23.315Z,13.17
2022-11-15T16:48:52.572Z,13.18
2022-11-15T16:51:20.224Z,13.23
2022-11-15T16:53:49.153Z,12.96
2022-11-15T16:56:22.913Z,13.19
2022-11-15T16:58:50.559Z,13.26
2022-11-15T17:01:21.091Z,13.54
2022-11-15T17:03:48.794Z,13.25
2022-11-15T17:06:18.659Z,13.22
2022-11-15T17:08:46.993Z,13.18
2022-11-15T17:11:16.663Z,13.41
2022-11-15T17:13:44.556Z,13.44
2022-11-15T17:16:14.290Z,13.21
2022-11-15T17:18:44.987Z,13.02
2022-11-15T17:21:14.893Z,13.05
2022-11-15T17:23:44.119Z,13.19
2022-11-15T17:26:28.687Z,13.20
2022-11-15T17:28:59.177Z,13.20
2022-11-15T17:31:27.054Z,12.98
2022-11-15T17:33:54.864Z,13.33
2022-11-15T17:36:22.804Z,13.40
2022-11-15T17:38:58.084Z,13.31
2022-11-15T17:41:27.703Z,13.13
2022-11-15T17:43:57.934Z,13.49
2022-11-15T17:46:26.132Z,13.24
2022-11-15T17:48:53.787Z,13.24
2022-11-15T17:51:23.036Z,13.17
2022-11-15T17:53:52.934Z,13.01
2022-11-15T17:56:21.905Z,12.77
2022-11-15T17:58:50.400Z,13.16
2022-11-15T18:01:20.397Z,13.08
2022-11-15T18:03:48.691Z,13.07
2022-11-15T18:06:17.006Z,12.74
2022-11-15T18:08:46.453Z,12.89
2022-11-15T18:11:17.321Z,13.04
2022-11-15T18:13:51.923Z,13.17
2022-11-15T18:16:21.559Z,13.39
2022-11-15T18:18:49.404Z,13.12
2022-11-15T18:21:18.517Z,13.32
2022-11-15T18:23:46.784Z,13.12
2022-11-15T18:26:17.041Z,13.11
2022-11-15T18:28:46.997Z,12.70
2022-11-15T18:31:15.912Z,13.08
2022-11-15T18:33:43.959Z,13.17
2022-11-15T18:36:13.904Z,13.28
2022-11-15T18:38:41.707Z,13.30
2022-11-15T18:41:10.650Z,13.29
2022-11-15T18:43:40.525Z,13.39
2022-11-15T18:46:09.993Z,13.48
2022-11-15T18:48:39.688Z,13.43
2022-11-15T18:51:08.336Z,13.62
2022-11-15T18:53:37.112Z,13.71
2022-11-15T18:56:06.792Z,13.38
2022-11-15T18:58:35.995Z,13.68
2022-11-15T19:01:06.649Z,13.44
2022-11-15T19:03:35.792Z,13.38
2022-11-15T19:06:04.905Z,13.49
2022-11-15T19:08:35.396Z,13.45
2022-11-15T19:11:05.024Z,13.51
2022-11-15T19:13:33.370Z,13.14
2022-11-15T19:16:02.649Z,13.32
2022-11-15T19:18:32.336Z,13.24
2022-11-15T19:21:03.331Z,13.31
2022-11-15T19:23:34.496Z,13.39
2022-11-15T19:26:03.898Z,13.53
2022-11-15T19:28:32.089Z,13.38
2022-11-15T19:31:04.867Z,13.40
2022-11-15T19:33:34.423Z,13.56
2022-11-15T19:36:02.614Z,13.45
2022-11-15T19:38:31.780Z,13.23
2022-11-15T19:41:00.437Z,13.63
2022-11-15T19:43:28.925Z,13.60
2022-11-15T19:46:02.085Z,13.59
2022-11-15T19:48:31.614Z,13.36
2022-11-15T19:51:03.041Z,13.50
2022-11-15T19:53:35.138Z,13.69
2022-11-15T19:56:04.453Z,13.49
2022-11-15T19:58:33.887Z,13.48
2022-11-15T20:01:03.124Z,13.33
2022-11-15T20:03:31.614Z,13.45
2022-11-15T20:06:04.812Z,13.53
2022-11-15T20:08:32.914Z,13.61
2022-11-15T20:11:01.373Z,13.26
2022-11-15T20:13:29.335Z,13.20
2022-11-15T20:15:57.553Z,13.40
2022-11-15T20:18:26.447Z,13.37
2022-11-15T20:20:55.199Z,13.44
2022-11-15T20:23:24.216Z,13.30
2022-11-15T20:25:51.881Z,13.18
2022-11-15T20:28:21.181Z,13.59
2022-11-15T20:30:49.500Z,13.43
2022-11-15T20:33:17.163Z,13.08
2022-11-15T20:35:45.170Z,13.27
2022-11-15T20:38:13.236Z,13.17
2022-11-15T20:40:42.624Z,13.15
2022-11-15T20:43:13.042Z,12.87
2022-11-15T20:45:40.690Z,12.96
2022-11-15T20:48:08.392Z,13.00
2022-11-15T20:50:42.746Z,13.04
2022-11-15T20:53:12.511Z,12.99
2022-11-15T20:55:42.309Z,13.01
2022-11-15T20:58:10.827Z,13.16
2022-11-15T21:00:38.945Z,13.08
2022-11-15T21:03:07.045Z,13.08
2022-11-15T21:05:35.399Z,13.19
2022-11-15T21:08:03.131Z,13.34
2022-11-15T21:10:48.520Z,13.12
2022-11-15T21:13:17.587Z,13.27
2022-11-15T21:15:45.239Z,13.24
2022-11-15T21:18:13.261Z,12.98
2022-11-15T21:20:41.368Z,13.09
2022-11-15T21:23:09.149Z,13.20
2022-11-15T21:25:36.816Z,13.19
2022-11-15T21:28:04.620Z,13.08
2022-11-15T21:30:33.621Z,13.20
2022-11-15T21:33:01.288Z,13.07
2022-11-15T21:35:29.328Z,13.31
2022-11-15T21:37:57.346Z,13.26
2022-11-15T21:40:25.132Z,13.36
2022-11-15T21:42:52.753Z,13.22
2022-11-15T21:45:20.400Z,13.24
2022-11-15T21:47:49.368Z,13.34
2022-11-15T21:50:17.608Z,13.56
2022-11-15T21:52:46.917Z,13.58
2022-11-15T21:55:14.655Z,13.30
2022-11-15T21:57:42.339Z,13.37
2022-11-15T22:00:28.456Z,13.23
2022-11-15T22:02:57.441Z,13.25
2022-11-15T22:05:25.156Z,13.14
2022-11-15T22:07:52.820Z,13.30
2022-11-15T22:10:20.521Z,13.17
2022-11-15T22:12:48.128Z,13.12
2022-11-15T22:15:15.808Z,13.18
2022-11-15T22:17:58.764Z,12.93
2022-11-15T22:20:43.940Z,13.26
2022-11-15T22:23:12.565Z,12.81
2022-11-15T22:25:41.302Z,13.13
2022-11-15T22:28:09.073Z,13.14
2022-11-15T22:30:36.868Z,13.16
2022-11-15T22:33:04.674Z,13.06
2022-11-15T22:35:35.292Z,12.93
2022-11-15T22:38:03.321Z,12.91
2022-11-15T22:40:31.247Z,12.64
2022-11-15T22:42:59.017Z,13.05
2022-11-15T22:45:26.841Z,13.08
2022-11-15T22:47:54.623Z,13.21
2022-11-15T22:50:24.031Z,13.25
2022-11-15T22:52:53.330Z,12.98
2022-11-15T22:55:21.127Z,12.98
2022-11-15T22:57:48.916Z,13.06
2022-11-15T23:00:18.584Z,13.01
2022-11-15T23:02:49.527Z,12.94
2022-11-15T23:05:19.624Z,12.95
2022-11-15T23:07:47.400Z,12.92
2022-11-15T23:10:33.247Z,12.89
2022-11-15T23:13:19.489Z,12.98
2022-11-15T23:16:06.577Z,13.09
2022-11-15T23:18:35.649Z,13.21
2022-11-15T23:21:10.011Z,12.77
2022-11-15T23:23:36.800Z,12.76
2022-11-15T23:26:06.397Z,12.73
2022-11-15T23:28:35.346Z,13.23
2022-11-15T23:31:22.239Z,13.05
2022-11-15T23:33:58.960Z,12.88
2022-11-15T23:36:27.368Z,12.59
2022-11-15T23:38:55.140Z,12.58
2022-11-15T23:41:24.864Z,12.77
2022-11-15T23:43:52.876Z,12.77
2022-11-15T23:46:20.785Z,12.78
2022-11-15T23:48:48.585Z,12.85
2022-11-15T23:51:16.403Z,12.93
2022-11-15T23:53:44.200Z,12.69
2022-11-15T23:56:13.563Z,12.79
2022-11-15T23:58:43.271Z,12.60
